• Join FlightAware (Why Join?)
  • Login
  • US Flag 
05:48AM EDT


 

Airport Tracker/Info


-or-


 

Live Flight TrackerFlight Track Log ✈ RAX500 ✈ 03-May-2013 ✈ KIAD - KSUA

Flight Track Log - Related Links

Times and Time Zones

All times are in EDT time to prevent confusion due to time zone crossing. See the RAX500 flight status page for this flight to view local times or setup timezone preferences in your user account.

Time Position Orientation Groundspeed Altitude Reporting Facility
EDT Latitude Longitude Course Direction KTS MPH feet Rate Location/Type
11:09AM 38.8281 -77.4489 185° South 232 267 6,800  Level Washington Center
11:10AM 38.7547 -77.4764 196° South 245 282 9,700 2,880 Climbing Washington Center
11:11AM 38.6753 -77.5036 195° South 278 320 12,600 2,820 Climbing Washington Center
11:12AM 38.5939 -77.4936 175° South 293 337 15,400 2,520 Climbing Washington Center
11:13AM 38.5067 -77.4861 176° South 307 353 17,800 2,400 Climbing Washington Center
11:14AM 38.4244 -77.5369 206° Southwest 312 359 20,200 1,560 Climbing Washington Center
11:15AM 38.3458 -77.6197 220° Southwest 341 392 21,000 360 Climbing Washington Center
11:16AM 38.2711 -77.7233 227° Southwest 364 419 21,000  Level Washington Center
11:17AM 38.2067 -77.8325 233° Southwest 384 442 21,000 120 Level Washington Center
11:18AM 38.1419 -77.9467 234° Southwest 392 451 21,300 780 Climbing Washington Center
11:19AM 38.0728 -78.0633 233° Southwest 404 465 22,700 1,320 Climbing Washington Center
11:20AM 38.0017 -78.1664 229° Southwest 403 464 24,000 600 Climbing Washington Center
11:21AM 37.9119 -78.2686 222° Southwest 397 457 24,000  Level Washington Center
11:22AM 37.8203 -78.3547 217° Southwest 405 466 24,000  Level Washington Center
11:23AM 37.7267 -78.4381 215° Southwest 417 480 24,000 240 Level Washington Center
11:24AM 37.6414 -78.5161 216° Southwest 423 487 24,600 660 Climbing Washington Center
11:25AM 37.5472 -78.6014 216° Southwest 423 487 25,400 840 Climbing Washington Center
11:26AM 37.4556 -78.6867 216° Southwest 423 487 26,300 780 Climbing Washington Center
11:27AM 37.3594 -78.7692 214° Southwest 417 480 27,000 780 Climbing Washington Center
11:28AM 37.2547 -78.8667 217° Southwest 422 486 27,900 840 Climbing Washington Center
11:29AM 37.1583 -78.9511 215° Southwest 422 486 28,700 780 Climbing Washington Center
11:30AM 37.0642 -79.0356 216° Southwest 422 486 29,500 720 Climbing Washington Center
11:31AM 36.9700 -79.1197 216° Southwest 422 486 30,200 720 Climbing Washington Center
11:32AM 36.8736 -79.2036 215° Southwest 417 480 31,000 720 Climbing Washington Center
11:33AM 36.7794 -79.2847 215° Southwest 417 480 31,700 660 Climbing Washington Center
11:34AM 36.6933 -79.3608 215° Southwest 417 480 32,400 660 Climbing Washington Center
11:35AM 36.6031 -79.4469 217° Southwest 417 480 33,100 720 Climbing Washington Center
11:36AM 36.5167 -79.5358 220° Southwest 411 473 33,900 780 Climbing Washington Center
11:38AM 36.3531 -79.7028 219° Southwest 404 465 35,400 660 Climbing Atlanta Center
11:39AM 36.2706 -79.7947 222° Southwest 399 459 35,900 540 Climbing Atlanta Center
11:40AM 36.1903 -79.8839 222° Southwest 399 459 36,500 540 Climbing Atlanta Center
11:41AM 36.1069 -79.9497 213° Southwest 399 459 37,000 480 Climbing Atlanta Center
11:42AM 36.0069 -80.0139 207° Southwest 399 459 37,500 540 Climbing Atlanta Center
11:43AM 35.9019 -80.0550 198° South 404 465 38,100 540 Climbing Atlanta Center
11:44AM 35.7967 -80.0961 198° South 404 465 38,600 540 Climbing Atlanta Center
11:45AM 35.6794 -80.1425 198° South 399 459 39,200 480 Climbing Atlanta Center
11:46AM 35.5719 -80.1783 195° South 399 459 39,600 300 Climbing Atlanta Center
11:47AM 35.4625 -80.2114 194° South 406 467 39,900 180 Climbing Atlanta Center
11:48AM 35.3511 -80.2497 196° South 411 473 40,000  Climbing Atlanta Center
11:50AM 35.1244 -80.3217 195° South 413 475 40,000  Level Jacksonville Center
11:51AM 35.0147 -80.3581 195° South 413 475 40,000  Level Jacksonville Center
11:52AM 34.9069 -80.3917 194° South 408 470 40,000  Level Jacksonville Center
11:53AM 34.7908 -80.4253 193° South 407 468 40,000  Level Jacksonville Center
11:54AM 34.6828 -80.4586 194° South 402 463 40,000 -60 Level Jacksonville Center
11:55AM 34.5750 -80.4894 193° South 402 463 39,900  Descending Jacksonville Center
11:56AM 34.4650 -80.5178 192° South 402 463 40,000  Climbing Jacksonville Center
11:57AM 34.3572 -80.5483 193° South 402 463 40,000 -60 Level Jacksonville Center
11:58AM 34.2472 -80.5789 193° South 402 463 39,900 -60 Descending Jacksonville Center
11:59AM 34.1411 -80.6094 193° South 402 463 39,900  Level Jacksonville Center
12:00PM 34.0311 -80.6397 193° South 402 463 40,000  Climbing Jacksonville Center
12:01PM 33.9233 -80.6725 194° South 402 463 39,900 -60 Descending Jacksonville Center
12:02PM 33.8175 -80.7053 194° South 402 463 39,900  Level Jacksonville Center
12:03PM 33.7094 -80.7381 194° South 397 457 40,000  Climbing Jacksonville Center
12:04PM 33.6036 -80.7706 194° South 392 451 39,900 -60 Descending Jacksonville Center
12:05PM 33.4956 -80.8028 194° South 392 451 39,900  Level Jacksonville Center
12:06PM 33.3897 -80.8378 195° South 392 451 39,900  Level Jacksonville Center
12:07PM 33.2839 -80.8700 194° South 392 451 39,900  Level Jacksonville Center
12:08PM 33.1781 -80.9047 195° South 392 451 39,900  Level Jacksonville Center
12:09PM 33.0803 -80.9367 195° South 392 451 39,900  Level Jacksonville Center
12:10PM 32.9744 -80.9711 195° South 397 457 39,900  Level Jacksonville Center
12:11PM 32.8661 -80.9883 188° South 397 457 40,000  Climbing Jacksonville Center
12:12PM 32.7536 -80.9906 181° South 397 457 39,900 -60 Descending Jacksonville Center
12:13PM 32.6431 -80.9978 183° South 402 463 39,900  Level Jacksonville Center
12:14PM 32.5322 -80.9953 179° South 402 463 39,900  Level Jacksonville Center
12:15PM 32.4217 -80.9975 181° South 402 463 39,900  Level Jacksonville Center
12:16PM 32.3131 -80.9997 181° South 397 457 40,000  Climbing Jacksonville Center
12:17PM 32.1919 -80.9997 180° South 402 463 40,000  Level Jacksonville Center
12:18PM 32.0794 -80.9997 180° South 402 463 40,000  Level Jacksonville Center
12:19PM 31.9814 -81.0067 183° South 402 463 40,000  Level Jacksonville Center
12:20PM 31.8606 -81.0214 186° South 402 463 40,000  Level Jacksonville Center
12:21PM 31.7522 -81.0381 187° South 402 463 40,000  Level Jacksonville Center
12:22PM 31.6522 -81.0547 188° South 408 470 40,000  Level Jacksonville Center
12:23PM 31.5333 -81.0767 189° South 408 470 40,000  Level Jacksonville Center
12:24PM 31.4231 -81.0983 190° South 408 470 40,000  Level Jacksonville Center
12:25PM 31.3231 -81.1197 190° South 408 470 40,000  Level Jacksonville Center
12:26PM 31.2106 -81.1339 186° South 408 470 40,000  Level Jacksonville Center
12:27PM 31.0958 -81.1458 185° South 408 470 40,000 -60 Level Jacksonville Center
12:28PM 30.9853 -81.1528 183° South 408 470 39,900  Descending Jacksonville Center
12:29PM 30.8728 -81.1597 183° South 408 470 40,000  Climbing Jacksonville Center
12:30PM 30.7581 -81.1617 181° South 403 464 40,000 -60 Level Jacksonville Center
12:31PM 30.6453 -81.1589 179° South 403 464 39,900 -60 Descending Jacksonville Center
12:32PM 30.5303 -81.1514 177° South 403 464 39,900  Level Jacksonville Center
12:33PM 30.4194 -81.1461 178° South 403 464 40,000  Climbing Jacksonville Center
12:34PM 30.3067 -81.1408 178° South 403 464 39,900 -180 Descending Jacksonville Center
12:35PM 30.1897 -81.1383 179° South 408 470 39,700 -300 Descending Jacksonville Center
12:36PM 30.0706 -81.1333 178° South 415 478 39,400 -420 Descending Jacksonville Center
12:37PM 29.9536 -81.1331 180° South 421 484 38,900 -600 Descending Jacksonville Center
12:38PM 29.8328 -81.1353 181° South 426 490 38,200 -720 Descending Jacksonville Center
12:39PM 29.7158 -81.1372 181° South 426 490 37,500 -900 Descending Jacksonville Center
12:40PM 29.5967 -81.1322 178° South 426 490 36,500 -1,020 Descending Jacksonville Center
12:41PM 29.4756 -81.1225 176° South 421 484 35,500 -900 Descending Jacksonville Center
12:42PM 29.3606 -81.1056 173° South 421 484 34,700 -1,080 Descending Jacksonville Center
12:43PM 29.1769 -81.0203 158° South 442 509 32,800 -1,440 Descending Miami Center
12:44PM 29.0619 -80.9589 155° Southeast 442 509 31,000 -1,860 Descending Miami Center
12:45PM 28.9511 -80.9003 155° Southeast 447 514 29,100 -1,800 Descending Miami Center
12:46PM 28.8403 -80.8372 154° Southeast 453 521 27,400 -1,680 Descending Miami Center
12:47PM 28.7292 -80.7786 155° Southeast 443 510 25,800 -1,560 Descending Miami Center
12:48PM 28.6222 -80.7253 156° South 433 498 24,300 -1,560 Descending Miami Center
12:49PM 28.5067 -80.6692 157° South 421 484 22,700 -1,440 Descending Miami Center
12:50PM 28.4039 -80.6186 157° South 410 472 21,500 -1,140 Descending Miami Center
12:51PM 28.3131 -80.5731 156° South 403 464 20,500 -1,080 Descending Miami Center
12:52PM 28.2142 -80.5253 157° South 397 457 19,400 -1,200 Descending Miami Center
12:53PM 28.1172 -80.4797 157° South 386 444 18,100 -1,320 Descending Miami Center
12:54PM 28.0225 -80.4294 155° Southeast 386 444 16,800 -1,320 Descending Miami Center
12:55PM 27.9256 -80.3864 159° South 386 444 15,500 -1,320 Descending Miami Center
12:56PM 27.8242 -80.3411 158° South 376 433 14,200 -1,260 Descending Miami Center
12:57PM 27.7436 -80.3106 161° South 353 406 13,000 -1,320 Descending Miami Center
12:58PM 27.6589 -80.2728 158° South 334 384 11,600 -1,500 Descending Miami Center
12:59PM 27.5700 -80.2419 163° South 316 364 10,000 -2,220 Descending Miami Center
01:00PM 27.4953 -80.2189 165° South 295 339 7,200 -2,940 Descending Miami Center
01:01PM 27.4236 -80.2425 196° South 261 300 4,200 -1,680 Descending Miami Center
01:02PM 27.3678 -80.2197 160° South 241 277 3,900 -600 Descending Miami Center
01:03PM 27.3100 -80.1947 159° South 236 272 3,100 -900 Descending Miami Center
01:04PM 27.2481 -80.1672 158° South 219 252 2,200 -660 Descending Miami Center
01:05PM 27.2003 -80.1494 162° South 195 224 1,800 -660 Descending Miami Center
01:06PM 27.1664 -80.1789 218° Southwest 152 175 900 -600 Descending Miami Center
01:07PM 27.1367 -80.1992 211° Southwest 137 158 600 -300 Descending Miami Center